Rollingbay, Washington
Current Conditions -  °F | °C
As of 8:53 AM on Thursday 27 Nov 2014 (Local Time) from KBFI Reporting Station
Broken Clouds Broken Clouds  
Wind Chill: 59°   Ceiling: 3600
Heat Index: 59°   Visibility: 10mi
Dew Point: 49°   Wind: 13mph
Humidity: 69%   Direction: 170°S
Pressure: 29.85"   Gusts: 23mph
Location:  47.66°N, 122.51°W
Report Text: KBFI 271653Z 17011G20KT 10SM SCT030 BKN036 15/09 A2985 RMK AO2 RAE1557 SLP108 P0001 T01500094
Loading
Personal Weather Stations






























Interactive Weather Map New forecast layout! Learn more

10-Day Weather Forecast

Advertisements
Track Severe Weather on mobile